createdAt,value
2019-02-14T00:00:13.454Z,95.23
2019-02-14T00:02:42.051Z,94.84
2019-02-14T00:05:16.146Z,94.19
2019-02-14T00:07:41.149Z,94.38
2019-02-14T00:10:10.425Z,94.53
2019-02-14T00:12:39.185Z,94.28
2019-02-14T00:15:11.208Z,93.67
2019-02-14T00:17:39.635Z,94.61
2019-02-14T00:20:09.908Z,94.35
2019-02-14T00:22:38.375Z,93.95
2019-02-14T00:25:10.386Z,93.50
2019-02-14T00:27:39.082Z,93.59
2019-02-14T00:30:10.084Z,93.77
2019-02-14T00:32:38.513Z,94.01
2019-02-14T00:35:07.380Z,94.62
2019-02-14T00:37:35.952Z,94.95
2019-02-14T00:40:06.606Z,94.19
2019-02-14T00:42:35.034Z,93.84
2019-02-14T00:45:03.498Z,94.09
2019-02-14T00:47:31.932Z,94.09
2019-02-14T00:50:00.430Z,93.38
2019-02-14T00:52:29.429Z,94.37
2019-02-14T00:54:57.881Z,94.57
2019-02-14T00:57:26.406Z,93.89
2019-02-14T00:59:54.869Z,93.53
2019-02-14T01:02:23.313Z,93.84
2019-02-14T01:04:51.757Z,93.24
2019-02-14T01:07:20.372Z,92.95
2019-02-14T01:09:48.813Z,93.45
2019-02-14T01:12:17.581Z,93.53
2019-02-14T01:14:46.425Z,92.91
2019-02-14T01:17:14.853Z,92.94
2019-02-14T01:19:43.280Z,93.37
2019-02-14T01:22:11.751Z,92.85
2019-02-14T01:24:40.173Z,93.35
2019-02-14T01:27:08.600Z,93.44
2019-02-14T01:29:37.414Z,93.86
2019-02-14T01:32:05.840Z,94.24
2019-02-14T01:34:34.627Z,94.28
2019-02-14T01:37:03.096Z,94.34
2019-02-14T01:39:31.521Z,94.95
2019-02-14T01:42:00.020Z,94.90
2019-02-14T01:44:29.348Z,94.45
2019-02-14T01:46:58.109Z,94.87
2019-02-14T01:50:06.487Z,95.01
2019-02-14T01:52:34.917Z,92.76
2019-02-14T02:00:51.357Z,93.47
2019-02-14T02:03:19.817Z,93.45
2019-02-14T02:05:50.879Z,93.44
2019-02-14T02:08:18.540Z,94.59
2019-02-14T02:13:40.352Z,94.31
2019-02-14T02:16:08.780Z,94.08
2019-02-14T02:21:32.152Z,94.08
2019-02-14T02:24:00.572Z,94.47
2019-02-14T02:26:29.072Z,94.79
2019-02-14T02:31:50.930Z,94.41
2019-02-14T02:34:19.774Z,94.51
2019-02-14T02:36:48.291Z,94.45
2019-02-14T02:39:17.032Z,94.27
2019-02-14T02:41:45.491Z,94.16
2019-02-14T02:44:13.919Z,93.18
2019-02-14T02:46:42.351Z,93.47
2019-02-14T02:49:10.845Z,94.18
2019-02-14T02:57:01.460Z,93.34
2019-02-14T02:59:29.953Z,93.71
2019-02-14T03:01:58.381Z,96.05
2019-02-14T03:07:33.786Z,95.08
2019-02-14T03:10:02.216Z,95.08
2019-02-14T03:12:50.061Z,95.62
2019-02-14T03:15:18.784Z,95.71
2019-02-14T03:17:47.216Z,94.48
2019-02-14T03:20:15.668Z,94.71
2019-02-14T03:23:03.509Z,94.59
2019-02-14T03:25:32.413Z,93.72
2019-02-14T03:28:01.163Z,94.31
2019-02-14T03:30:29.599Z,94.46
2019-02-14T03:32:58.433Z,94.28
2019-02-14T03:35:26.856Z,93.19
2019-02-14T03:37:55.284Z,93.64
2019-02-14T03:40:23.740Z,94.18
2019-02-14T03:43:11.359Z,93.95
2019-02-14T03:45:39.828Z,93.68
2019-02-14T03:48:08.258Z,93.81
2019-02-14T03:50:36.686Z,94.01
2019-02-14T03:53:05.144Z,93.87
2019-02-14T03:55:33.574Z,93.90
2019-02-14T03:58:02.004Z,93.63
2019-02-14T04:00:30.464Z,94.00
2019-02-14T04:02:58.892Z,93.89
2019-02-14T04:05:27.323Z,93.89
2019-02-14T04:07:55.775Z,93.45
2019-02-14T04:10:24.203Z,93.08
2019-02-14T04:12:52.634Z,93.63
2019-02-14T04:17:54.660Z,93.62
2019-02-14T04:20:23.225Z,93.43
2019-02-14T04:22:51.652Z,93.18
2019-02-14T04:25:20.090Z,93.61
2019-02-14T04:27:48.589Z,93.93
2019-02-14T04:30:36.255Z,94.17
2019-02-14T04:33:23.981Z,94.54
2019-02-14T04:35:52.415Z,94.64
2019-02-14T04:38:20.836Z,93.82
2019-02-14T04:41:08.619Z,93.59
2019-02-14T04:43:37.034Z,92.73
2019-02-14T04:46:05.465Z,93.38
2019-02-14T04:48:33.943Z,93.01
2019-02-14T04:51:02.367Z,93.07
2019-02-14T04:53:30.792Z,93.41
2019-02-14T04:55:59.243Z,93.76
2019-02-14T04:58:27.692Z,93.59
2019-02-14T05:00:56.475Z,93.24
2019-02-14T05:03:24.931Z,92.12
2019-02-14T05:05:53.354Z,91.77
2019-02-14T05:08:21.775Z,92.08
2019-02-14T05:13:24.685Z,91.61
2019-02-14T05:16:12.425Z,92.68
2019-02-14T05:18:40.941Z,92.67
2019-02-14T05:21:09.364Z,92.39
2019-02-14T05:23:37.819Z,92.89
2019-02-14T05:26:06.337Z,93.44
2019-02-14T05:28:34.769Z,93.12
2019-02-14T05:31:03.230Z,93.45
2019-02-14T05:33:31.747Z,93.48
2019-02-14T05:36:00.188Z,93.74
2019-02-14T05:38:28.980Z,93.67
2019-02-14T05:40:57.784Z,93.75
2019-02-14T05:43:26.225Z,94.67
2019-02-14T05:45:54.686Z,94.55
2019-02-14T05:48:23.112Z,94.12
2019-02-14T05:50:51.540Z,93.62
2019-02-14T05:53:19.991Z,93.45
2019-02-14T05:55:48.415Z,93.67
2019-02-14T05:58:16.868Z,93.09
2019-02-14T06:00:45.320Z,93.11
2019-02-14T06:03:13.836Z,92.83
2019-02-14T06:05:42.580Z,93.11
2019-02-14T06:08:11.032Z,93.13
2019-02-14T06:10:39.871Z,93.51
2019-02-14T06:13:08.640Z,93.36
2019-02-14T06:15:37.179Z,93.74
2019-02-14T06:18:05.603Z,93.55
2019-02-14T06:20:34.409Z,93.12
2019-02-14T06:23:03.279Z,92.97
2019-02-14T06:25:31.747Z,93.47
2019-02-14T06:28:00.176Z,93.63
2019-02-14T06:30:28.948Z,93.36
2019-02-14T06:32:57.372Z,93.04
2019-02-14T06:35:25.807Z,93.04
2019-02-14T06:38:34.744Z,92.36
2019-02-14T06:41:03.672Z,92.32
2019-02-14T06:43:52.624Z,92.41
2019-02-14T06:46:21.061Z,92.37
2019-02-14T06:48:49.860Z,92.48
2019-02-14T06:51:18.624Z,92.86
2019-02-14T06:53:47.056Z,92.09
2019-02-14T06:56:15.474Z,92.17
2019-02-14T06:58:43.935Z,92.63
2019-02-14T07:01:12.359Z,93.05
2019-02-14T07:03:41.626Z,93.07
2019-02-14T07:06:10.083Z,93.01
2019-02-14T07:08:38.513Z,93.03
2019-02-14T07:11:26.524Z,93.36
2019-02-14T07:13:54.951Z,93.21
2019-02-14T07:16:23.381Z,93.31
2019-02-14T07:18:51.837Z,92.77
2019-02-14T07:21:21.747Z,92.33
2019-02-14T07:23:51.001Z,92.13
2019-02-14T07:28:53.224Z,92.71
2019-02-14T07:31:21.652Z,94.26
2019-02-14T07:33:50.128Z,94.22
2019-02-14T07:36:18.639Z,94.57
2019-02-14T07:38:47.140Z,94.65
2019-02-14T07:41:15.591Z,93.79
2019-02-14T07:43:44.017Z,94.00
2019-02-14T07:46:12.445Z,93.72
2019-02-14T07:51:33.706Z,94.16
2019-02-14T07:54:02.181Z,94.18
2019-02-14T07:56:30.708Z,94.91
2019-02-14T07:58:59.140Z,94.55
2019-02-14T08:01:46.782Z,93.70
2019-02-14T08:04:15.214Z,94.61
2019-02-14T08:06:43.925Z,95.33
2019-02-14T08:09:12.397Z,95.31
2019-02-14T08:12:00.145Z,94.55
2019-02-14T08:14:28.692Z,94.34
2019-02-14T08:16:57.124Z,95.45
2019-02-14T08:19:25.583Z,94.87
2019-02-14T08:21:54.058Z,94.90
2019-02-14T08:24:22.490Z,94.73
2019-02-14T08:26:50.928Z,94.17
2019-02-14T08:29:19.391Z,94.65
2019-02-14T08:31:47.821Z,94.12
2019-02-14T08:37:24.546Z,93.51
2019-02-14T08:39:52.966Z,93.46
2019-02-14T08:42:21.399Z,94.18
2019-02-14T08:44:49.855Z,95.62
2019-02-14T08:47:18.612Z,94.96
2019-02-14T08:49:47.036Z,94.71
2019-02-14T08:52:15.490Z,94.84
2019-02-14T08:54:43.938Z,94.23
2019-02-14T08:57:12.361Z,93.88
2019-02-14T08:59:41.121Z,94.24
2019-02-14T09:02:09.551Z,94.38
2019-02-14T09:04:37.966Z,94.42
2019-02-14T09:07:06.417Z,94.54
2019-02-14T09:09:34.843Z,94.65
2019-02-14T09:12:03.633Z,94.01
2019-02-14T09:17:26.924Z,92.46
2019-02-14T09:19:55.351Z,92.15
2019-02-14T09:22:24.110Z,92.28
2019-02-14T09:24:52.666Z,91.98
2019-02-14T09:27:21.087Z,92.13
2019-02-14T09:29:49.530Z,91.11
2019-02-14T09:34:57.647Z,89.24
2019-02-14T09:37:26.043Z,87.53
2019-02-14T09:39:54.471Z,87.76
2019-02-14T09:42:22.915Z,87.62
2019-02-14T09:44:51.348Z,88.46
2019-02-14T09:47:19.773Z,89.01
2019-02-14T09:49:48.340Z,89.24
2019-02-14T09:52:17.149Z,89.50
2019-02-14T09:54:45.923Z,88.90
2019-02-14T10:02:29.434Z,89.13
2019-02-14T10:04:58.171Z,88.36
2019-02-14T10:07:26.938Z,88.34
2019-02-14T10:09:55.405Z,87.79
2019-02-14T10:12:43.295Z,86.97
2019-02-14T10:15:52.002Z,86.88
2019-02-14T10:18:20.424Z,86.90
2019-02-14T10:20:49.205Z,85.48
2019-02-14T10:23:18.090Z,84.84
2019-02-14T10:25:47.924Z,85.95
2019-02-14T10:28:16.343Z,85.48
2019-02-14T10:30:44.791Z,83.83
2019-02-14T10:33:13.215Z,85.20
2019-02-14T10:36:00.863Z,85.58
2019-02-14T10:38:29.283Z,84.66
2019-02-14T10:40:57.991Z,84.16
2019-02-14T10:46:00.503Z,83.55
2019-02-14T10:48:28.957Z,84.43
2019-02-14T10:50:57.379Z,83.37
2019-02-14T10:53:25.803Z,84.62
2019-02-14T10:55:54.333Z,83.89
2019-02-14T10:58:22.827Z,83.27
2019-02-14T11:00:51.256Z,83.50
2019-02-14T11:03:20.057Z,83.27
2019-02-14T11:06:08.122Z,83.41
2019-02-14T11:11:30.317Z,82.26
2019-02-14T11:16:32.412Z,80.74
2019-02-14T11:19:00.866Z,79.92
2019-02-14T11:21:29.611Z,78.95
2019-02-14T11:23:58.395Z,79.12
2019-02-14T11:26:26.849Z,79.46
2019-02-14T11:28:55.581Z,79.80
2019-02-14T11:31:23.989Z,79.48
2019-02-14T11:36:26.381Z,78.33
2019-02-14T11:38:54.816Z,78.70
2019-02-14T11:43:57.653Z,77.65
2019-02-14T11:46:26.210Z,76.98
2019-02-14T11:48:54.641Z,76.77
2019-02-14T11:54:16.573Z,76.53
2019-02-14T11:56:45.040Z,76.85
2019-02-14T11:59:13.474Z,76.46
2019-02-14T12:01:41.991Z,75.77
2019-02-14T12:04:10.444Z,75.68
2019-02-14T12:06:38.971Z,75.20
2019-02-14T12:09:07.455Z,74.94
2019-02-14T12:11:36.004Z,74.92
2019-02-14T12:14:04.788Z,74.69
2019-02-14T12:16:33.303Z,74.51
2019-02-14T12:19:01.861Z,74.45
2019-02-14T12:21:30.290Z,73.85
2019-02-14T12:23:59.008Z,74.42
2019-02-14T12:26:46.585Z,74.06
2019-02-14T12:29:34.230Z,74.15
2019-02-14T12:32:02.709Z,74.03
2019-02-14T12:34:31.176Z,74.23
2019-02-14T12:37:18.994Z,73.78
2019-02-14T12:39:47.426Z,73.45
2019-02-14T12:42:15.853Z,73.43
2019-02-14T12:47:18.321Z,73.56
2019-02-14T12:49:46.870Z,72.91
2019-02-14T12:52:15.296Z,72.15
2019-02-14T12:54:44.068Z,71.97
2019-02-14T12:57:12.545Z,71.87
2019-02-14T12:59:40.974Z,71.30
2019-02-14T13:02:28.616Z,70.91
2019-02-14T13:04:57.149Z,71.40
2019-02-14T13:07:25.580Z,70.25
2019-02-14T13:10:13.444Z,70.36
2019-02-14T13:12:41.960Z,68.85
2019-02-14T13:15:50.331Z,68.88
2019-02-14T13:18:19.044Z,68.94
2019-02-14T13:20:47.477Z,68.30
2019-02-14T13:23:16.007Z,68.01
2019-02-14T13:25:44.446Z,67.59
2019-02-14T13:28:32.225Z,67.59
2019-02-14T13:31:00.667Z,66.16
2019-02-14T13:33:29.389Z,66.26
2019-02-14T13:36:17.284Z,65.76
2019-02-14T13:38:45.810Z,65.65
2019-02-14T13:41:33.593Z,65.42
2019-02-14T13:44:02.108Z,64.79
2019-02-14T13:46:30.808Z,65.13
2019-02-14T13:48:59.274Z,64.30
2019-02-14T13:51:27.698Z,64.12
2019-02-14T13:54:15.489Z,63.32
2019-02-14T13:56:54.031Z,63.90
2019-02-14T14:01:56.774Z,63.90
2019-02-14T14:04:25.292Z,63.18
2019-02-14T14:06:53.725Z,62.86
2019-02-14T14:09:22.190Z,63.20
2019-02-14T14:11:50.621Z,63.73
2019-02-14T14:14:19.143Z,63.70
2019-02-14T14:19:21.944Z,64.95
2019-02-14T14:21:50.733Z,66.18
2019-02-14T14:24:19.254Z,67.56
2019-02-14T14:26:47.680Z,67.13
2019-02-14T14:29:16.459Z,67.02
2019-02-14T14:31:44.976Z,67.53
2019-02-14T14:34:13.409Z,68.20
2019-02-14T14:39:16.432Z,69.06
2019-02-14T14:41:44.995Z,69.05
2019-02-14T14:47:02.871Z,70.51
2019-02-14T14:49:31.303Z,71.47
2019-02-14T14:51:59.734Z,72.12
2019-02-14T14:54:28.194Z,72.31
2019-02-14T14:56:56.620Z,73.08
2019-02-14T14:59:25.377Z,73.96
2019-02-14T15:01:54.164Z,73.92
2019-02-14T15:04:22.952Z,74.60
2019-02-14T15:06:51.381Z,75.00
2019-02-14T15:09:19.840Z,74.64
2019-02-14T15:11:48.270Z,75.05
2019-02-14T15:14:16.792Z,75.81
2019-02-14T15:16:45.325Z,76.33
2019-02-14T15:19:13.757Z,76.57
2019-02-14T15:21:42.545Z,76.49
2019-02-14T15:24:11.313Z,76.32
2019-02-14T15:26:40.106Z,76.06
2019-02-14T15:29:08.912Z,75.99
2019-02-14T15:31:37.476Z,75.91
2019-02-14T15:34:06.264Z,75.84
2019-02-14T15:36:34.692Z,75.80
2019-02-14T15:41:39.081Z,75.47
2019-02-14T15:44:07.516Z,75.22
2019-02-14T15:46:35.964Z,75.39
2019-02-14T15:49:25.406Z,75.01
2019-02-14T15:51:54.200Z,75.31
2019-02-14T15:54:22.657Z,75.58
2019-02-14T15:56:53.148Z,76.24
2019-02-14T15:59:42.991Z,76.50
2019-02-14T16:02:10.916Z,76.82
2019-02-14T16:04:39.655Z,76.79
2019-02-14T16:07:08.071Z,76.40
2019-02-14T16:09:38.864Z,76.77
2019-02-14T16:12:06.782Z,77.37
2019-02-14T16:14:54.613Z,78.13
2019-02-14T16:17:23.352Z,77.79
2019-02-14T16:19:51.782Z,77.20
2019-02-14T16:24:54.342Z,78.37
2019-02-14T16:27:24.535Z,79.17
2019-02-14T16:29:53.143Z,79.74
2019-02-14T16:32:21.572Z,79.84
2019-02-14T16:34:49.998Z,80.41
2019-02-14T16:37:18.541Z,80.87
2019-02-14T16:39:51.842Z,80.88
2019-02-14T16:42:17.123Z,81.17
2019-02-14T16:47:20.067Z,82.19
2019-02-14T16:49:48.508Z,82.41
2019-02-14T16:52:17.049Z,82.34
2019-02-14T16:54:45.528Z,83.58
2019-02-14T16:57:13.995Z,83.70
2019-02-14T16:59:42.830Z,83.80
2019-02-14T17:02:11.355Z,84.70
2019-02-14T17:04:59.056Z,84.40
2019-02-14T17:10:15.019Z,86.57
2019-02-14T17:12:43.452Z,85.96
2019-02-14T17:15:31.493Z,86.58
2019-02-14T17:17:59.922Z,85.79
2019-02-14T17:20:28.703Z,85.57
2019-02-14T17:22:57.170Z,85.88
2019-02-14T17:25:45.149Z,87.30
2019-02-14T17:28:13.911Z,87.76
2019-02-14T17:30:42.448Z,87.64
2019-02-14T17:33:10.865Z,87.60
2019-02-14T17:35:39.321Z,87.67
2019-02-14T17:38:07.757Z,86.15
2019-02-14T17:40:36.176Z,86.53
2019-02-14T17:45:57.836Z,87.08
2019-02-14T17:48:26.668Z,87.40
2019-02-14T17:50:56.773Z,87.45
2019-02-14T17:53:25.557Z,87.64
2019-02-14T17:55:53.993Z,87.16
2019-02-14T17:58:22.453Z,88.03
2019-02-14T18:00:50.887Z,88.33
2019-02-14T18:03:19.718Z,88.36
2019-02-14T18:05:48.289Z,89.13
2019-02-14T18:08:35.843Z,89.47
2019-02-14T18:13:39.011Z,89.48
2019-02-14T18:16:07.795Z,89.56
2019-02-14T18:18:36.261Z,89.75
2019-02-14T18:21:04.778Z,90.33
2019-02-14T18:23:33.237Z,91.22
2019-02-14T18:26:02.526Z,90.51
2019-02-14T18:28:30.955Z,91.27
2019-02-14T18:31:18.738Z,91.19
2019-02-14T18:34:06.550Z,90.77
2019-02-14T18:36:54.354Z,91.39
2019-02-14T18:39:42.141Z,91.34
2019-02-14T18:42:30.428Z,91.87
2019-02-14T18:45:19.543Z,92.19
2019-02-14T18:48:07.225Z,92.98
2019-02-14T18:50:35.719Z,92.58
2019-02-14T18:53:23.552Z,92.58
2019-02-14T18:56:11.338Z,91.18
2019-02-14T19:04:46.771Z,92.22
2019-02-14T19:07:15.223Z,92.85
2019-02-14T19:09:44.713Z,92.85
2019-02-14T19:12:32.624Z,92.75
2019-02-14T19:15:20.281Z,92.96
2019-02-14T19:17:49.107Z,93.86
2019-02-14T19:20:36.907Z,94.28
2019-02-14T19:25:59.092Z,93.99
2019-02-14T19:28:46.993Z,94.61
2019-02-14T19:31:15.533Z,93.49
2019-02-14T19:34:03.453Z,93.66
2019-02-14T19:36:31.970Z,94.55
2019-02-14T19:39:00.406Z,94.72
2019-02-14T19:41:28.963Z,94.77
2019-02-14T19:44:16.713Z,94.17
2019-02-14T19:46:45.251Z,94.40
2019-02-14T19:49:33.026Z,94.95
2019-02-14T19:52:20.791Z,95.60
2019-02-14T19:58:36.889Z,95.04
2019-02-14T20:01:06.329Z,96.00
2019-02-14T20:03:35.271Z,94.64
2019-02-14T20:06:03.930Z,95.11
2019-02-14T20:08:32.476Z,95.14
2019-02-14T20:11:01.438Z,95.21
2019-02-14T20:13:30.707Z,95.51
2019-02-14T20:15:59.267Z,94.68
2019-02-14T20:18:28.233Z,94.11
2019-02-14T20:20:56.798Z,94.75
2019-02-14T20:23:25.574Z,94.85
2019-02-14T20:25:54.386Z,95.58
2019-02-14T20:28:23.356Z,95.18
2019-02-14T20:30:52.153Z,94.50
2019-02-14T20:33:21.562Z,94.63
2019-02-14T20:35:50.302Z,95.56
2019-02-14T20:38:20.692Z,95.30
2019-02-14T20:40:49.633Z,95.33
2019-02-14T20:43:18.283Z,95.38
2019-02-14T20:45:47.132Z,95.11
2019-02-14T20:48:15.779Z,95.49
2019-02-14T20:50:44.501Z,95.46
2019-02-14T20:53:13.666Z,95.32
2019-02-14T20:55:42.282Z,95.88
2019-02-14T20:58:11.242Z,96.37
2019-02-14T21:00:41.735Z,95.51
2019-02-14T21:03:10.632Z,95.66
2019-02-14T21:05:40.367Z,96.20
2019-02-14T21:08:09.358Z,95.67
2019-02-14T21:10:38.010Z,95.80
2019-02-14T21:13:06.724Z,96.40
2019-02-14T21:15:35.682Z,96.24
2019-02-14T21:18:06.266Z,96.54
2019-02-14T21:20:35.001Z,96.18
2019-02-14T21:23:03.540Z,96.21
2019-02-14T21:25:32.055Z,95.79
2019-02-14T21:28:00.579Z,95.42
2019-02-14T21:30:29.069Z,95.49
2019-02-14T21:32:57.777Z,95.46
2019-02-14T21:35:26.463Z,95.71
2019-02-14T21:37:55.002Z,95.09
2019-02-14T21:40:23.744Z,95.19
2019-02-14T21:42:52.378Z,94.87
2019-02-14T21:45:21.166Z,95.29
2019-02-14T21:47:49.887Z,95.79
2019-02-14T21:50:19.206Z,95.90
2019-02-14T21:52:47.643Z,96.47
2019-02-14T21:55:17.386Z,96.00
2019-02-14T21:57:46.659Z,96.20
2019-02-14T22:00:26.494Z,97.17
2019-02-14T22:02:54.994Z,98.23
2019-02-14T22:05:25.815Z,97.35
2019-02-14T22:07:54.000Z,96.83
2019-02-14T22:10:23.444Z,96.94
2019-02-14T22:12:51.949Z,96.90
2019-02-14T22:15:25.749Z,96.71
2019-02-14T22:17:54.615Z,97.92
2019-02-14T22:20:23.395Z,99.31
2019-02-14T22:22:52.148Z,97.83
2019-02-14T22:25:21.309Z,97.18
2019-02-14T22:27:50.032Z,96.59
2019-02-14T22:30:18.662Z,96.52
2019-02-14T22:32:47.893Z,95.92
2019-02-14T22:35:16.604Z,96.31
2019-02-14T22:37:45.041Z,95.81
2019-02-14T22:40:14.622Z,96.34
2019-02-14T22:42:47.142Z,96.29
2019-02-14T22:45:15.072Z,96.59
2019-02-14T22:47:45.054Z,95.49
2019-02-14T22:50:14.413Z,96.99
2019-02-14T22:52:42.926Z,97.17
2019-02-14T22:55:13.312Z,96.74
2019-02-14T22:57:41.924Z,96.40
2019-02-14T23:00:13.668Z,96.88
2019-02-14T23:02:42.403Z,96.05
2019-02-14T23:05:12.198Z,95.97
2019-02-14T23:07:41.136Z,96.17
2019-02-14T23:10:10.128Z,95.77
2019-02-14T23:12:38.977Z,96.87
2019-02-14T23:15:08.538Z,96.33
2019-02-14T23:17:38.966Z,96.65
2019-02-14T23:20:07.697Z,96.52
2019-02-14T23:22:36.536Z,96.36
2019-02-14T23:25:06.037Z,96.68
2019-02-14T23:27:34.738Z,96.83
2019-02-14T23:30:03.616Z,96.51
2019-02-14T23:32:32.333Z,96.74
2019-02-14T23:35:01.697Z,97.09
2019-02-14T23:37:30.989Z,96.95
2019-02-14T23:40:00.273Z,98.12
2019-02-14T23:42:28.631Z,98.18
2019-02-14T23:44:57.331Z,96.87
2019-02-14T23:47:26.415Z,96.16
2019-02-14T23:49:55.630Z,96.26
2019-02-14T23:52:24.347Z,95.64
2019-02-14T23:54:53.117Z,96.04
2019-02-14T23:57:21.841Z,95.88
2019-02-14T23:59:50.517Z,95.67
